Главная страница
METAR-TAF:

METAR-TAF

Аэропорты :

Хельсинки, Финляндия

Хельсинки-Вантаа

широта: 60-19N, долгота: 024-58E, высота над уровнем моря: 51 м

Текущие метеонаблюдения

Эта сводка был подготовлена 31 минут назад, в 06:50 UTC
Ветер 7 Узел от юго-восточный
Температура 4°C
Влажность 81%
Давление 1016 hPa
Видимость 10 км и более
небольшая облачность на высоте 1200 фута
Рассеянная облачность на высоте 14000 фута

METAR: EFHK 230650Z 14007KT 9999 FEW012 BKN140 04/01 Q1016 NOSIG

Время: 10:21 (07:21 UTC)

Прогноз

Эта сводка был подготовлена 1 час и 50 минут назад, в 05:31 UTC
Прогноз действительный с 23-го 06 UTC до 24-го 06 UTC
Ветер 7 Узел от юго-восточный
Видимость 10 км и более
небольшая облачность на высоте 3000 фута
Рассеянная облачность на высоте 13000 фута
изменения
С 23-го 07 UTC до 23-го 09 UTC
Ветер 10 Узел от юго-юго-восточный

TAF: EFHK 230531Z 2306/2406 14007KT 9999 FEW030 BKN130 BECMG 2307/2309 16010KT

Метеонаблюдения и прогнозы для более 4000 аэропортов (сводки METAR и TAF).

Имеющиеся станции представлены на карте желтыми и красными точками.

Чтобы увидеть название станции, наведите на нее мышь.

Затем щелкните, чтобы увидеть метеонаблюдения и метеопрогнозы.

Управление картой: чтобы увеличить масштаб, щелкните зеленые кнопки с черным крестиком; чтобы уменьшить масштаб, щелкните зеленую кнопку с тире; для просмотра соседних карт щелкайте зеленые стрелки.


METAR-TAF: